Terminal Aerodrome Forecast
Issued by NWS

Home | Current Version | Previous Version | Text Only | Print | Product List | Glossary On
Versions: 1 2 3 4 5 6 7 8 9 10 11 12 13 14
543
FTUS42 KTAE 302320
TAFVLD
TAF
KVLD 302320Z 3100/3124 20006KT P6SM BKN100 OVC250
     FM310600 20006KT 5SM RA BKN020
     FM310800 22004KT P6SM BKN020 BKN050 OVC120
     FM311700 25009G15KT P6SM BKN040=

USA.gov is the U.S. government's official web portal to all federal, state and local government web resources and services.